createdAt,value
2019-01-06T05:30:40.477Z,0.80
2019-01-06T05:33:37.817Z,0.80
2019-01-06T05:36:32.146Z,0.80
2019-01-06T05:39:26.057Z,0.80
2019-01-06T05:42:12.627Z,0.80
2019-01-06T05:45:00.639Z,0.80
2019-01-06T05:47:47.480Z,0.80
2019-01-06T05:50:38.610Z,0.70
2019-01-06T05:53:29.694Z,0.80
2019-01-06T05:56:16.739Z,0.80
2019-01-06T05:59:10.976Z,0.80
2019-01-06T06:02:02.287Z,0.80
2019-01-06T06:04:42.485Z,0.80
2019-01-06T06:07:39.362Z,0.70
2019-01-06T06:10:26.207Z,0.70
2019-01-06T06:13:27.267Z,0.70
2019-01-06T06:16:14.047Z,0.70
2019-01-06T06:19:00.476Z,0.70
2019-01-06T06:21:48.919Z,0.70
2019-01-06T06:24:36.916Z,0.70
2019-01-06T06:27:24.913Z,0.70
2019-01-06T06:30:11.678Z,0.70
2019-01-06T06:32:58.327Z,0.70
2019-01-06T06:35:45.100Z,0.80
2019-01-06T06:38:31.853Z,0.70
2019-01-06T06:41:25.845Z,0.70
2019-01-06T06:44:12.466Z,0.70
2019-01-06T06:47:06.390Z,0.70
2019-01-06T06:50:03.555Z,0.80
2019-01-06T06:52:54.369Z,0.70
2019-01-06T06:55:40.728Z,0.90
2019-01-06T06:58:38.646Z,0.80
2019-01-06T07:02:40.672Z,0.80
2019-01-06T07:05:26.759Z,0.80
2019-01-06T07:08:19.480Z,0.80
2019-01-06T07:11:06.292Z,0.80
2019-01-06T07:14:03.476Z,0.80
2019-01-06T07:17:40.089Z,0.80
2019-01-06T07:20:22.544Z,0.90
2019-01-06T07:23:13.545Z,0.90
2019-01-06T07:26:00.255Z,0.80
2019-01-06T07:28:48.298Z,0.80
2019-01-06T07:31:33.111Z,0.90
2019-01-06T07:34:27.259Z,0.80
2019-01-06T07:37:27.280Z,0.90
2019-01-06T07:40:18.357Z,0.90
2019-01-06T07:43:09.471Z,0.90
2019-01-06T07:45:55.984Z,0.90
2019-01-06T07:48:43.973Z,0.90
2019-01-06T07:51:34.773Z,0.90
2019-01-06T07:54:28.847Z,1.00
2019-01-06T07:57:08.487Z,0.90
2019-01-06T07:59:51.423Z,1.00
2019-01-06T08:02:38.157Z,1.00
2019-01-06T08:05:20.738Z,1.00
2019-01-06T08:08:21.235Z,1.10
2019-01-06T08:11:01.250Z,1.00
2019-01-06T08:14:05.092Z,1.00
2019-01-06T08:16:48.139Z,1.10
2019-01-06T08:19:31.830Z,1.10
2019-01-06T08:22:25.954Z,1.00
2019-01-06T08:25:12.776Z,1.00
2019-01-06T08:28:03.971Z,1.00
2019-01-06T08:30:48.096Z,1.00
2019-01-06T08:33:41.812Z,1.00
2019-01-06T08:36:28.315Z,1.00
2019-01-06T08:39:16.481Z,1.00
2019-01-06T08:42:02.954Z,1.00
2019-01-06T08:45:08.997Z,1.00
2019-01-06T08:48:03.271Z,1.10
2019-01-06T08:50:51.271Z,1.10
2019-01-06T08:53:57.301Z,1.10
2019-01-06T08:56:48.150Z,1.10
2019-01-06T08:59:52.087Z,1.10
2019-01-06T09:02:58.019Z,1.20
2019-01-06T09:05:44.623Z,1.20
2019-01-06T09:08:27.326Z,1.30
2019-01-06T09:11:21.343Z,1.30
2019-01-06T09:14:08.148Z,1.30
2019-01-06T09:16:54.664Z,1.30
2019-01-06T09:19:49.946Z,1.30
2019-01-06T09:22:30.705Z,1.30
2019-01-06T09:25:18.701Z,1.30
2019-01-06T09:28:05.293Z,1.30
2019-01-06T09:30:55.131Z,1.30
2019-01-06T09:33:41.746Z,1.30
2019-01-06T09:36:29.843Z,1.30
2019-01-06T09:39:23.744Z,1.40
2019-01-06T09:42:10.510Z,1.40
2019-01-06T09:44:58.481Z,1.50
2019-01-06T09:47:46.566Z,1.40
2019-01-06T09:50:33.526Z,1.40
2019-01-06T09:53:21.590Z,1.50
2019-01-06T09:56:12.978Z,1.50
2019-01-06T09:59:10.026Z,1.50
2019-01-06T10:01:56.607Z,1.50
2019-01-06T10:04:43.319Z,1.40
2019-01-06T10:07:49.439Z,1.40
2019-01-06T10:10:36.299Z,1.50
2019-01-06T10:13:33.023Z,1.50
2019-01-06T10:16:21.124Z,1.50
2019-01-06T10:19:04.815Z,1.60
2019-01-06T10:21:57.262Z,1.50
2019-01-06T10:24:51.674Z,1.60
2019-01-06T10:27:28.241Z,1.60
2019-01-06T10:30:16.312Z,1.60
2019-01-06T10:33:04.322Z,1.60
2019-01-06T10:35:52.332Z,1.60
2019-01-06T10:38:55.482Z,1.60
2019-01-06T10:41:33.984Z,1.60
2019-01-06T10:44:21.982Z,1.70
2019-01-06T10:47:03.202Z,1.80
2019-01-06T10:50:06.726Z,1.90
2019-01-06T10:52:53.270Z,1.90
2019-01-06T10:55:44.458Z,1.80
2019-01-06T10:58:32.282Z,1.80
2019-01-06T11:01:18.746Z,1.80
2019-01-06T11:04:05.551Z,1.80
2019-01-06T11:06:52.656Z,1.80
2019-01-06T11:09:55.864Z,1.80
2019-01-06T11:12:43.931Z,1.80
2019-01-06T11:15:38.201Z,1.80
2019-01-06T11:18:32.127Z,1.70
2019-01-06T11:21:28.147Z,1.70
2019-01-06T11:24:14.624Z,1.70
2019-01-06T11:27:01.190Z,1.60
2019-01-06T11:29:48.086Z,1.70
2019-01-06T11:32:36.102Z,1.70
2019-01-06T11:35:22.814Z,1.70
2019-01-06T11:38:09.401Z,1.70
2019-01-06T11:41:08.094Z,1.70
2019-01-06T11:43:54.105Z,1.60
2019-01-06T11:46:40.474Z,1.60
2019-01-06T11:49:31.194Z,1.70
2019-01-06T11:52:19.123Z,1.70
2019-01-06T11:55:07.111Z,1.70
2019-01-06T11:57:54.725Z,1.70
2019-01-06T12:00:48.767Z,1.80
2019-01-06T12:03:50.519Z,1.70
2019-01-06T12:06:35.581Z,1.70
2019-01-06T12:09:43.488Z,1.70
2019-01-06T12:12:30.419Z,1.70
2019-01-06T12:15:17.070Z,1.70
2019-01-06T12:18:10.279Z,1.70
2019-01-06T12:20:58.709Z,1.70
2019-01-06T12:23:54.274Z,1.70
2019-01-06T12:26:42.475Z,1.70
2019-01-06T12:29:41.632Z,1.70
2019-01-06T12:32:35.526Z,1.70
2019-01-06T12:35:34.875Z,1.70
2019-01-06T12:38:35.018Z,1.70
2019-01-06T12:41:26.925Z,1.60
2019-01-06T12:44:30.039Z,1.80
2019-01-06T12:47:16.775Z,1.70
2019-01-06T12:50:14.048Z,1.70
2019-01-06T12:53:02.022Z,1.70
2019-01-06T12:55:45.349Z,1.70
2019-01-06T12:58:36.996Z,1.70
2019-01-06T13:01:17.898Z,1.70
2019-01-06T13:04:09.164Z,1.60
2019-01-06T13:06:56.423Z,1.60
2019-01-06T13:09:47.370Z,1.60
2019-01-06T13:12:43.283Z,1.60
2019-01-06T13:15:37.217Z,1.50
2019-01-06T13:18:26.832Z,1.50
2019-01-06T13:21:27.521Z,1.60
2019-01-06T13:24:24.674Z,1.70
2019-01-06T13:27:11.634Z,1.70
2019-01-06T13:30:05.556Z,1.70
2019-01-06T13:33:02.861Z,1.70
2019-01-06T13:35:56.986Z,1.70
2019-01-06T13:38:43.744Z,1.60
2019-01-06T13:41:37.849Z,1.50
2019-01-06T13:44:31.657Z,1.40
2019-01-06T13:47:37.726Z,1.20
2019-01-06T13:50:24.341Z,1.20
2019-01-06T13:53:26.101Z,1.20
2019-01-06T13:56:12.886Z,1.30
2019-01-06T13:59:16.006Z,1.30
2019-01-06T14:02:04.059Z,1.30
2019-01-06T14:04:55.267Z,1.40
2019-01-06T14:07:58.085Z,1.40
2019-01-06T14:10:45.042Z,1.40
2019-01-06T14:13:33.554Z,1.40
2019-01-06T14:16:27.486Z,1.40
2019-01-06T14:19:21.438Z,1.50
2019-01-06T14:22:14.189Z,1.40
2019-01-06T14:25:06.907Z,1.40
2019-01-06T14:27:53.849Z,1.50
2019-01-06T14:30:46.239Z,1.40
2019-01-06T14:33:37.291Z,1.50
2019-01-06T14:36:23.822Z,1.50
2019-01-06T14:39:11.835Z,1.40
2019-01-06T14:41:58.145Z,1.50
2019-01-06T14:44:49.254Z,1.40
2019-01-06T14:47:42.174Z,1.50
2019-01-06T14:50:33.069Z,1.40
2019-01-06T14:53:16.011Z,1.40
2019-01-06T14:55:57.919Z,1.40
2019-01-06T14:58:49.011Z,1.50
2019-01-06T15:01:35.683Z,1.40
2019-01-06T15:04:22.485Z,1.50
2019-01-06T15:07:10.547Z,1.40
2019-01-06T15:09:57.298Z,1.40
2019-01-06T15:12:44.182Z,1.40
2019-01-06T15:15:30.625Z,1.40
2019-01-06T15:18:18.708Z,1.50
2019-01-06T15:21:18.902Z,1.40
2019-01-06T15:23:59.780Z,1.30
2019-01-06T15:26:57.171Z,1.30
2019-01-06T15:29:53.962Z,1.30
2019-01-06T15:32:36.198Z,1.40
2019-01-06T15:35:23.034Z,1.40
2019-01-06T15:38:10.338Z,1.40
2019-01-06T15:41:04.981Z,1.40
2019-01-06T15:43:51.507Z,1.40
2019-01-06T15:46:40.398Z,1.40
2019-01-06T15:49:22.609Z,1.40
2019-01-06T15:52:16.954Z,1.40
2019-01-06T15:55:03.641Z,1.40
2019-01-06T15:57:48.698Z,1.40
2019-01-06T16:00:35.701Z,1.40
2019-01-06T16:03:26.832Z,1.40
2019-01-06T16:06:23.834Z,1.40
2019-01-06T16:09:15.046Z,1.40
2019-01-06T16:12:01.966Z,1.40
2019-01-06T16:14:48.955Z,1.40
2019-01-06T16:17:35.762Z,1.40
2019-01-06T16:20:27.051Z,1.40
2019-01-06T16:23:14.362Z,1.40
2019-01-06T16:26:01.063Z,1.40
2019-01-06T16:28:49.127Z,1.40
2019-01-06T16:31:43.313Z,1.50
2019-01-06T16:34:36.523Z,1.50
2019-01-06T16:37:18.619Z,1.40
2019-01-06T16:40:15.915Z,1.40
2019-01-06T16:43:04.265Z,1.40
2019-01-06T16:45:50.784Z,1.50
2019-01-06T16:48:51.908Z,1.50
2019-01-06T16:51:38.851Z,1.50
2019-01-06T16:54:29.994Z,1.40
2019-01-06T16:57:16.511Z,1.50
2019-01-06T17:00:03.350Z,1.40
2019-01-06T17:02:50.208Z,1.50
2019-01-06T17:05:38.319Z,1.50
2019-01-06T17:08:24.915Z,1.50
2019-01-06T17:11:20.422Z,1.50
2019-01-06T17:14:06.847Z,1.50
2019-01-06T17:16:53.804Z,1.50
2019-01-06T17:19:56.835Z,1.60
2019-01-06T17:23:02.879Z,1.50
2019-01-06T17:25:48.716Z,1.50
2019-01-06T17:28:35.885Z,1.60
2019-01-06T17:31:30.027Z,1.60
2019-01-06T17:34:21.177Z,1.50
2019-01-06T17:37:07.728Z,1.50
2019-01-06T17:39:54.351Z,1.50
2019-01-06T17:42:50.561Z,1.50
2019-01-06T17:45:37.362Z,1.50
2019-01-06T17:48:25.714Z,1.60
2019-01-06T17:51:12.213Z,1.60
2019-01-06T17:53:58.670Z,1.50
2019-01-06T17:56:45.393Z,1.50
2019-01-06T17:59:42.423Z,1.50
2019-01-06T18:02:31.494Z,1.60
2019-01-06T18:05:18.063Z,1.50
2019-01-06T18:08:13.386Z,1.60
2019-01-06T18:11:04.581Z,1.50
2019-01-06T18:13:57.550Z,1.50
2019-01-06T18:16:38.914Z,1.50
2019-01-06T18:19:36.046Z,1.50
2019-01-06T18:22:39.160Z,1.50
2019-01-06T18:25:27.355Z,1.50
2019-01-06T18:28:14.072Z,1.50
2019-01-06T18:31:00.691Z,1.50
2019-01-06T18:34:06.626Z,1.50
2019-01-06T18:36:52.950Z,1.50
2019-01-06T18:39:48.112Z,1.60
2019-01-06T18:42:45.491Z,1.60
2019-01-06T18:45:43.707Z,1.60
2019-01-06T18:48:34.544Z,1.60
2019-01-06T18:51:21.370Z,1.60
2019-01-06T18:54:04.878Z,1.60
2019-01-06T18:57:02.189Z,1.70
2019-01-06T18:59:59.354Z,1.70
2019-01-06T19:02:53.582Z,1.70
2019-01-06T19:05:40.373Z,1.70
2019-01-06T19:08:40.266Z,1.70
2019-01-06T19:11:43.567Z,1.70
2019-01-06T19:14:30.407Z,1.70
2019-01-06T19:17:12.810Z,1.70
2019-01-06T19:20:03.715Z,1.70
2019-01-06T19:22:59.487Z,1.70
2019-01-06T19:25:30.562Z,1.70
2019-01-06T19:28:24.180Z,1.70
2019-01-06T19:31:21.450Z,1.70
2019-01-06T19:34:08.255Z,1.70
2019-01-06T19:36:54.059Z,1.70
2019-01-06T19:39:44.936Z,1.60
2019-01-06T19:42:44.935Z,1.60
2019-01-06T19:45:33.030Z,1.60
2019-01-06T19:48:39.109Z,1.50
2019-01-06T19:51:38.745Z,1.50
2019-01-06T19:54:30.236Z,1.50
2019-01-06T19:57:16.143Z,1.50
2019-01-06T20:00:19.807Z,1.50
2019-01-06T20:03:07.839Z,1.40
2019-01-06T20:05:54.719Z,1.40
2019-01-06T20:08:41.249Z,1.30
2019-01-06T20:11:38.362Z,1.30
2019-01-06T20:14:38.542Z,1.30
2019-01-06T20:17:25.097Z,1.20
2019-01-06T20:20:11.601Z,1.30
2019-01-06T20:23:02.502Z,1.30
2019-01-06T20:26:02.646Z,1.30
2019-01-06T20:29:09.070Z,1.30
2019-01-06T20:31:51.095Z,1.30
2019-01-06T20:34:51.267Z,1.30
2019-01-06T20:37:57.774Z,1.20
2019-01-06T20:40:49.085Z,1.30
2019-01-06T20:43:46.310Z,1.30
2019-01-06T20:46:40.447Z,1.30
2019-01-06T20:49:46.602Z,1.30
2019-01-06T20:52:32.219Z,1.30
2019-01-06T20:55:26.975Z,1.30
2019-01-06T20:58:13.934Z,1.30
2019-01-06T21:01:08.077Z,1.30
2019-01-06T21:03:57.070Z,1.30
2019-01-06T21:06:50.936Z,1.30
2019-01-06T21:09:36.175Z,1.30
2019-01-06T21:12:33.173Z,1.30
2019-01-06T21:15:19.950Z,1.30
2019-01-06T21:18:06.481Z,1.20
2019-01-06T21:20:53.458Z,1.20
2019-01-06T21:23:40.333Z,1.20
2019-01-06T21:26:29.054Z,1.20
2019-01-06T21:29:24.102Z,1.20
2019-01-06T21:32:18.475Z,1.20
2019-01-06T21:35:05.307Z,1.20
2019-01-06T21:37:49.871Z,1.20
2019-01-06T21:40:36.431Z,1.20
2019-01-06T21:43:33.496Z,1.20
2019-01-06T21:46:23.242Z,1.20
2019-01-06T21:49:14.075Z,1.10
2019-01-06T21:52:14.038Z,1.10
2019-01-06T21:55:00.671Z,1.10
2019-01-06T21:57:47.416Z,1.10
2019-01-06T22:00:34.327Z,1.10
2019-01-06T22:03:22.962Z,1.10
2019-01-06T22:06:20.050Z,1.10
2019-01-06T22:09:14.357Z,1.10
2019-01-06T22:11:58.235Z,1.10
2019-01-06T22:14:45.062Z,1.10
2019-01-06T22:17:31.683Z,1.10
2019-01-06T22:20:30.338Z,1.10
2019-01-06T22:23:17.137Z,1.10
2019-01-06T22:26:03.990Z,1.20
2019-01-06T22:28:58.519Z,1.10
2019-01-06T22:31:46.694Z,1.10
2019-01-06T22:34:45.632Z,1.10
2019-01-06T22:37:32.170Z,1.10
2019-01-06T22:40:26.591Z,1.10
2019-01-06T22:43:13.167Z,1.10
2019-01-06T22:46:04.394Z,1.10
2019-01-06T22:48:52.972Z,1.10
2019-01-06T22:51:39.772Z,1.10
2019-01-06T22:54:26.311Z,1.00
2019-01-06T22:57:12.779Z,1.10
2019-01-06T23:00:03.797Z,1.10
